Clifford A. Barnes — WRN5495 — position and weather

sailwx.info

Track history (hours):
 
Tides and Currents Weather Stations Pressure Air Temp Water Temp Dewpoint Dewpoint Depression Visibility Wind Speed Wind Dir Waves Ship Positions

Oceanographic research ship Clifford A. Barnes (USA)

Ship's website: http://www.ocean.washington.edu/vessels/CAB/cab.html

Detailed information on ship capabilities available from University of Delaware's Ocean Information Center.

Owner: UNIVERSITY OF WASHINGTON, SEATTLE, WA. More information available from US FCC via Universal Licensing System.

Last reported at 2017-Mar-04 23:31 UTC. Time now 2017-Mar-26 01:45 UTC.
Position N 47°39' W 122°19'.
Warning: this ship's position is 21 days out of date.

Length 22 m.

Type: Other ship. MMSI: 366918910.

Date/timePositionNaut miles runAvg speedWind from/ knotsBaromVisibWave heightAir tempDewpointWater temp
2017-Mar-04 23:31N 47°39' W 122°19'3 3.6
2017-Mar-04 22:33N 47°40' W 122°14'1 0.6
2017-Mar-04 21:33N 47°41' W 122°13'4 1.7
2017-Mar-04 19:11N 47°39' W 122°19'1 0.9
2017-Mar-04 18:33N 47°39' W 122°18'3 3.1
2017-Mar-04 17:33N 47°40' W 122°14'  
2017-Feb-28 00:26N 47°39' W 122°19'2 2.0
2017-Feb-27 23:31N 47°39' W 122°16'1 1.0
2017-Feb-27 22:31N 47°40' W 122°16'2 1.7
2017-Feb-27 21:33N 47°41' W 122°15'2 1.8
2017-Feb-27 20:31N 47°43' W 122°16'1 0.9
2017-Feb-27 19:32N 47°42' W 122°16'0 0.3
2017-Feb-27 18:33N 47°43' W 122°15'1 1.2
2017-Feb-27 17:22N 47°41' W 122°14'2 2.4
2017-Feb-27 16:33N 47°40' W 122°15'3 1.4
2017-Feb-27 14:28N 47°39' W 122°19'0 0.0
2017-Feb-27 07:21N 47°39' W 122°19'1 0.2
2017-Feb-27 01:32N 47°39' W 122°17'2 2.3
2017-Feb-27 00:33N 47°37' W 122°16'3 3.4
2017-Feb-26 23:33N 47°35' W 122°12'2 0.6
2017-Feb-26 20:30N 47°34' W 122°14'1 0.6
2017-Feb-26 19:32N 47°34' W 122°15'1 1.2
2017-Feb-26 18:33N 47°35' W 122°16'0 0.5
2017-Feb-26 17:33N 47°35' W 122°17'3 2.8
2017-Feb-26 16:33N 47°38' W 122°16'1 1.0
2017-Feb-26 15:33N 47°39' W 122°17'1 0.1
2017-Feb-25 23:11N 47°39' W 122°19'2 3.0
2017-Feb-25 22:32N 47°39' W 122°16'1 0.9
2017-Feb-25 21:25N 47°40' W 122°15'2 1.2
2017-Feb-25 19:17N 47°39' W 122°19'1 1.6
2017-Feb-25 18:33N 47°39' W 122°17'1 0.6
2017-Feb-25 17:33N 47°39' W 122°16'2 0.1
2017-Feb-25 01:10N 47°39' W 122°19'3 4.9
2017-Feb-25 00:33N 47°40' W 122°24'3 2.9
2017-Feb-24 23:33N 47°38' W 122°26'4 3.5
2017-Feb-24 22:33N 47°34' W 122°25'1 1.1
2017-Feb-24 21:34N 47°35' W 122°27'3 2.9
2017-Feb-24 20:33N 47°32' W 122°25'3 2.7
2017-Feb-24 19:33N 47°33' W 122°29'1 0.7
2017-Feb-24 18:34N 47°34' W 122°30'3 3.1
2017-Feb-24 17:33N 47°36' W 122°28'3 2.7
2017-Feb-24 16:33N 47°37' W 122°24'1 0.6
2017-Feb-24 15:33N 47°38' W 122°23'0 0.0
2017-Feb-24 14:33N 47°38' W 122°23'0 0.0
2017-Feb-24 13:33N 47°38' W 122°23'0 0.0
2017-Feb-24 12:33N 47°38' W 122°23'0 0.0
2017-Feb-24 11:33N 47°38' W 122°23'0 0.0
2017-Feb-24 10:33N 47°38' W 122°23'0 0.0
2017-Feb-24 09:32N 47°38' W 122°23'0 0.0
2017-Feb-24 08:33N 47°38' W 122°23'0 0.0
2017-Feb-24 07:33N 47°38' W 122°23'0 0.0
2017-Feb-24 06:33N 47°38' W 122°23'0 0.0
2017-Feb-24 05:33N 47°38' W 122°23'0 0.0
2017-Feb-24 04:32N 47°38' W 122°23'0 0.0
2017-Feb-24 03:32N 47°38' W 122°23'0 0.0
2017-Feb-24 02:34N 47°38' W 122°23'4 3.9
2017-Feb-24 01:33N 47°39' W 122°29'2 2.4
2017-Feb-24 00:33N 47°40' W 122°26'4 3.6
2017-Feb-23 23:34N 47°44' W 122°25'7 7.0
2017-Feb-23 22:33N 47°51' W 122°24'9 8.9
2017-Feb-23 21:34N 47°60' W 122°21'10 8.6
2017-Feb-23 20:21N 48°07' W 122°32'2 2.9
2017-Feb-23 19:32N 48°05' W 122°31'3 3.2
2017-Feb-23 18:27N 48°01' W 122°32'4 4.2
2017-Feb-23 17:33N 48°05' W 122°33'2 2.1
2017-Feb-23 16:25N 48°06' W 122°29'7 7.6
2017-Feb-23 15:32N 48°02' W 122°22'6 6.0
2017-Feb-23 14:34N 47°60' W 122°13'0 0.0
2017-Feb-23 01:32N 47°60' W 122°13'4 3.5
2017-Feb-23 00:31N 47°59' W 122°19'3 3.5
2017-Feb-22 23:33N 47°56' W 122°20'  
Track history (hours):
 
Tides and Currents Weather Stations Pressure Air Temp Water Temp Dewpoint Dewpoint Depression Visibility Wind Speed Wind Dir Waves Ship Positions

Oceanographic research ship Clifford A. Barnes (USA)

Ship's website: http://www.ocean.washington.edu/vessels/CAB/cab.html

Detailed information on ship capabilities available from University of Delaware's Ocean Information Center.

Owner: UNIVERSITY OF WASHINGTON, SEATTLE, WA. More information available from US FCC via Universal Licensing System.

Last reported at 2017-Mar-04 23:31 UTC. Time now 2017-Mar-26 01:45 UTC.
Position N 47°39' W 122°19'.
Warning: this ship's position is 21 days out of date.

Length 22 m.

Type: Other ship. MMSI: 366918910.

Date/timePositionNaut miles runAvg speedWind from/ knotsBaromVisibWave heightAir tempDewpointWater temp
2017-Mar-04 23:31N 47°39' W 122°19'3 3.6
2017-Mar-04 22:33N 47°40' W 122°14'1 0.6
2017-Mar-04 21:33N 47°41' W 122°13'4 1.7
2017-Mar-04 19:11N 47°39' W 122°19'1 0.9
2017-Mar-04 18:33N 47°39' W 122°18'3 3.1
2017-Mar-04 17:33N 47°40' W 122°14'  
2017-Feb-28 00:26N 47°39' W 122°19'2 2.0
2017-Feb-27 23:31N 47°39' W 122°16'1 1.0
2017-Feb-27 22:31N 47°40' W 122°16'2 1.7
2017-Feb-27 21:33N 47°41' W 122°15'2 1.8
2017-Feb-27 20:31N 47°43' W 122°16'1 0.9
2017-Feb-27 19:32N 47°42' W 122°16'0 0.3
2017-Feb-27 18:33N 47°43' W 122°15'1 1.2
2017-Feb-27 17:22N 47°41' W 122°14'2 2.4
2017-Feb-27 16:33N 47°40' W 122°15'3 1.4
2017-Feb-27 14:28N 47°39' W 122°19'0 0.0
2017-Feb-27 07:21N 47°39' W 122°19'1 0.2
2017-Feb-27 01:32N 47°39' W 122°17'2 2.3
2017-Feb-27 00:33N 47°37' W 122°16'3 3.4
2017-Feb-26 23:33N 47°35' W 122°12'2 0.6
2017-Feb-26 20:30N 47°34' W 122°14'1 0.6
2017-Feb-26 19:32N 47°34' W 122°15'1 1.2
2017-Feb-26 18:33N 47°35' W 122°16'0 0.5
2017-Feb-26 17:33N 47°35' W 122°17'3 2.8
2017-Feb-26 16:33N 47°38' W 122°16'1 1.0
2017-Feb-26 15:33N 47°39' W 122°17'1 0.1
2017-Feb-25 23:11N 47°39' W 122°19'2 3.0
2017-Feb-25 22:32N 47°39' W 122°16'1 0.9
2017-Feb-25 21:25N 47°40' W 122°15'2 1.2
2017-Feb-25 19:17N 47°39' W 122°19'1 1.6
2017-Feb-25 18:33N 47°39' W 122°17'1 0.6
2017-Feb-25 17:33N 47°39' W 122°16'2 0.1
2017-Feb-25 01:10N 47°39' W 122°19'3 4.9
2017-Feb-25 00:33N 47°40' W 122°24'3 2.9
2017-Feb-24 23:33N 47°38' W 122°26'4 3.5
2017-Feb-24 22:33N 47°34' W 122°25'1 1.1
2017-Feb-24 21:34N 47°35' W 122°27'3 2.9
2017-Feb-24 20:33N 47°32' W 122°25'3 2.7
2017-Feb-24 19:33N 47°33' W 122°29'1 0.7
2017-Feb-24 18:34N 47°34' W 122°30'3 3.1
2017-Feb-24 17:33N 47°36' W 122°28'3 2.7
2017-Feb-24 16:33N 47°37' W 122°24'1 0.6
2017-Feb-24 15:33N 47°38' W 122°23'0 0.0
2017-Feb-24 14:33N 47°38' W 122°23'0 0.0
2017-Feb-24 13:33N 47°38' W 122°23'0 0.0
2017-Feb-24 12:33N 47°38' W 122°23'0 0.0
2017-Feb-24 11:33N 47°38' W 122°23'0 0.0
2017-Feb-24 10:33N 47°38' W 122°23'0 0.0
2017-Feb-24 09:32N 47°38' W 122°23'0 0.0
2017-Feb-24 08:33N 47°38' W 122°23'0 0.0
2017-Feb-24 07:33N 47°38' W 122°23'0 0.0
2017-Feb-24 06:33N 47°38' W 122°23'0 0.0
2017-Feb-24 05:33N 47°38' W 122°23'0 0.0
2017-Feb-24 04:32N 47°38' W 122°23'0 0.0
2017-Feb-24 03:32N 47°38' W 122°23'0 0.0
2017-Feb-24 02:34N 47°38' W 122°23'4 3.9
2017-Feb-24 01:33N 47°39' W 122°29'2 2.4
2017-Feb-24 00:33N 47°40' W 122°26'4 3.6
2017-Feb-23 23:34N 47°44' W 122°25'7 7.0
2017-Feb-23 22:33N 47°51' W 122°24'9 8.9
2017-Feb-23 21:34N 47°60' W 122°21'10 8.6
2017-Feb-23 20:21N 48°07' W 122°32'2 2.9
2017-Feb-23 19:32N 48°05' W 122°31'3 3.2
2017-Feb-23 18:27N 48°01' W 122°32'4 4.2
2017-Feb-23 17:33N 48°05' W 122°33'2 2.1
2017-Feb-23 16:25N 48°06' W 122°29'7 7.6
2017-Feb-23 15:32N 48°02' W 122°22'6 6.0
2017-Feb-23 14:34N 47°60' W 122°13'0 0.0
2017-Feb-23 01:32N 47°60' W 122°13'4 3.5
2017-Feb-23 00:31N 47°59' W 122°19'3 3.5
2017-Feb-22 23:33N 47°56' W 122°20'  

Dump ship's entire track history